Time;durP1;ratioP1;P1;durP2;ratioP2;P2;SDS_P1;SDS_P2;PMS_P1;PMS_P2;Temp;Humidity;BMP_temperature;BMP_pressure;BME280_temperature;BME280_humidity;BME280_pressure;Samples;Min_cycle;Max_cycle;Signal;HPM_P1;HPM_P2
2022/09/30 00:00:09;;;;;;;9.20;7.00;;;;;;;9.75;74.67;100832.88;5021792;28;20381;-76
2022/09/30 00:02:34;;;;;;;8.77;7.38;;;;;;;9.67;74.61;100838.66;5019417;28;20061;-77
2022/09/30 00:05:00;;;;;;;8.65;6.82;;;;;;;9.76;74.68;100842.31;5018629;28;20937;-76
2022/09/30 00:07:25;;;;;;;7.78;6.72;;;;;;;9.70;74.76;100845.56;5016836;28;20030;-76
2022/09/30 00:09:50;;;;;;;8.18;7.25;;;;;;;9.70;74.59;100845.56;5022760;28;20389;-77
2022/09/30 00:12:16;;;;;;;8.82;6.80;;;;;;;9.69;74.63;100848.97;5020344;28;20112;-76
2022/09/30 00:14:42;;;;;;;8.18;6.88;;;;;;;9.67;74.54;100848.06;5016624;28;20033;-77
2022/09/30 00:17:07;;;;;;;8.88;6.70;;;;;;;9.63;74.33;100846.19;5024377;28;20038;-77
2022/09/30 00:19:33;;;;;;;8.55;6.32;;;;;;;9.65;74.21;100849.72;5019212;28;20034;-77
2022/09/30 00:21:58;;;;;;;8.32;6.45;;;;;;;9.61;74.02;100845.28;5027075;28;20029;-77
2022/09/30 00:24:23;;;;;;;7.45;6.57;;;;;;;9.62;74.02;100847.03;4990667;28;20025;-77
2022/09/30 00:26:49;;;;;;;8.05;6.75;;;;;;;9.61;74.29;100841.03;5019594;28;20556;-77
2022/09/30 00:29:14;;;;;;;8.13;6.63;;;;;;;9.56;74.45;100842.56;5037047;28;20456;-77
2022/09/30 00:31:40;;;;;;;10.65;6.57;;;;;;;9.52;74.48;100835.59;5013252;28;20045;-77
2022/09/30 00:34:05;;;;;;;9.00;6.95;;;;;;;9.51;74.10;100836.41;4991092;28;20572;-76
2022/09/30 00:36:42;;;;;;;7.38;6.30;;;;;;;9.55;74.38;100842.53;5014909;28;20026;-77
2022/09/30 00:39:36;;;;;;;8.23;7.03;;;;;;;9.46;74.16;100840.53;5018486;28;20065;-77
2022/09/30 00:42:05;;;;;;;8.30;6.43;;;;;;;9.42;74.00;100838.69;5018007;28;20050;-77
2022/09/30 00:44:45;;;;;;;;;;;;;;;9.70;73.21;100840.44;5023462;28;20029;-77
2022/09/30 00:47:27;;;;;;;9.18;6.65;;;;;;;9.52;74.10;100840.72;5015227;28;20011;-77
2022/09/30 00:49:57;;;;;;;7.60;6.70;;;;;;;9.36;74.30;100846.19;5018873;28;21927;-77
2022/09/30 00:52:23;;;;;;;8.85;7.03;;;;;;;9.28;74.53;100845.06;5022870;28;20498;-77
2022/09/30 00:54:50;;;;;;;8.77;6.93;;;;;;;9.18;74.58;100838.78;5005780;28;20041;-77
2022/09/30 00:57:15;;;;;;;8.43;6.90;;;;;;;9.21;74.93;100849.13;5021897;28;20455;-77
2022/09/30 00:59:46;;;;;;;9.32;6.55;;;;;;;9.23;74.87;100852.63;5017000;28;20592;-77
2022/09/30 01:02:13;;;;;;;8.90;6.72;;;;;;;9.18;75.09;100849.03;5023660;28;20058;-77
2022/09/30 01:04:40;;;;;;;9.10;7.22;;;;;;;9.20;74.89;100849.06;5025519;28;20032;-76
2022/09/30 01:07:07;;;;;;;8.85;7.50;;;;;;;9.22;75.19;100843.19;5023169;28;20047;-76
2022/09/30 01:09:36;;;;;;;9.95;7.20;;;;;;;9.19;74.61;100843.06;5021009;28;20025;-77
2022/09/30 01:12:09;;;;;;;8.53;7.30;;;;;;;9.23;74.64;100844.06;5032392;28;20033;-77
2022/09/30 01:14:36;;;;;;;9.13;7.20;;;;;;;9.15;74.78;100851.47;5039127;28;20021;-76
2022/09/30 01:17:09;;;;;;;8.32;6.93;;;;;;;9.11;74.55;100857.34;5038733;28;20116;-76
2022/09/30 01:19:47;;;;;;;8.10;6.38;;;;;;;9.19;74.35;100850.78;5038022;28;20089;-76
2022/09/30 01:22:36;;;;;;;7.78;6.88;;;;;;;9.13;74.47;100855.69;5018304;28;20041;-76
2022/09/30 01:25:31;;;;;;;9.05;7.43;;;;;;;9.20;74.31;100842.25;5036917;28;20032;-76
2022/09/30 01:28:33;;;;;;;7.63;6.93;;;;;;;9.17;74.10;100844.72;5032621;28;20050;-76
2022/09/30 01:31:25;;;;;;;7.90;6.85;;;;;;;9.03;74.66;100851.94;5036810;28;20504;-75
2022/09/30 01:34:02;;;;;;;8.38;7.47;;;;;;;9.00;74.81;100854.41;5036760;28;20025;-76
2022/09/30 01:36:42;;;;;;;8.40;7.60;;;;;;;8.96;74.97;100854.25;5013530;28;20080;-76
2022/09/30 01:39:08;;;;;;;10.55;7.00;;;;;;;8.94;75.16;100849.06;5036302;28;20735;-76
2022/09/30 01:41:54;;;;;;;9.02;7.28;;;;;;;9.01;74.91;100848.47;5032751;28;20029;-76
2022/09/30 01:44:48;;;;;;;7.47;6.78;;;;;;;9.03;74.74;100857.06;5022829;28;20124;-76
2022/09/30 01:47:25;;;;;;;8.55;6.68;;;;;;;8.92;75.20;100850.72;5030881;28;20032;-76
2022/09/30 01:50:00;;;;;;;7.90;7.10;;;;;;;8.94;75.13;100858.47;5035750;28;20510;-76
2022/09/30 01:52:37;;;;;;;8.50;6.65;;;;;;;8.91;75.39;100858.34;5016310;28;20432;-76
2022/09/30 01:55:30;;;;;;;8.30;6.85;;;;;;;8.96;74.82;100847.41;5017049;28;20059;-76
2022/09/30 01:58:03;;;;;;;8.13;6.43;;;;;;;8.91;74.80;100854.09;5036441;28;20377;-76
2022/09/30 02:00:33;;;;;;;7.38;6.63;;;;;;;8.85;74.93;100859.00;5033748;28;20025;-76
2022/09/30 02:03:15;;;;;;;7.80;6.60;;;;;;;8.84;74.63;100857.25;5037417;28;20080;-76
2022/09/30 02:05:53;;;;;;;9.45;6.05;;;;;;;8.81;74.73;100857.16;5034793;28;20029;-76
2022/09/30 02:08:22;;;;;;;9.57;5.93;;;;;;;8.83;74.26;100855.53;5037890;28;20655;-76
2022/09/30 02:11:01;;;;;;;9.60;5.97;;;;;;;8.78;74.24;100849.34;5014589;28;20135;-77
2022/09/30 02:13:40;;;;;;;6.10;5.43;;;;;;;8.76;74.41;100863.81;5035154;28;20494;-75
2022/09/30 02:16:13;;;;;;;9.80;5.68;;;;;;;8.75;74.44;100864.66;5034536;28;20025;-75
2022/09/30 02:18:43;;;;;;;6.53;5.00;;;;;;;8.68;74.35;100861.00;5039747;28;20032;-76
2022/09/30 02:21:14;;;;;;;8.43;5.70;;;;;;;8.69;74.73;100867.00;5015171;28;20033;-75
2022/09/30 02:23:43;;;;;;;6.63;5.93;;;;;;;8.63;74.78;100851.38;5039669;28;20024;-76
2022/09/30 02:26:15;;;;;;;;;;;;;;;8.89;73.78;100860.00;5036146;28;20033;-76
2022/09/30 02:28:45;;;;;;;7.28;5.65;;;;;;;8.67;74.83;100866.91;5016219;28;19921;-76
2022/09/30 02:31:14;;;;;;;5.40;4.90;;;;;;;8.60;74.92;100860.69;5033427;28;20131;-76
2022/09/30 02:34:20;;;;;;;6.20;4.95;;;;;;;8.70;74.30;100861.03;5041626;28;20028;-76
2022/09/30 02:36:54;;;;;;;6.97;5.03;;;;;;;8.58;74.76;100859.78;4990094;28;20029;-76
2022/09/30 02:39:27;;;;;;;5.45;4.95;;;;;;;8.56;74.81;100858.88;5035638;28;20032;-77
2022/09/30 02:42:00;;;;;;;6.93;5.00;;;;;;;8.47;75.11;100850.81;5032790;28;20033;-77
2022/09/30 02:44:26;;;;;;;5.57;4.63;;;;;;;8.47;74.85;100855.94;5032494;28;20021;-76
2022/09/30 02:47:10;;;;;;;8.45;5.85;;;;;;;8.52;75.43;100857.00;5035781;28;20476;-76
2022/09/30 02:49:50;;;;;;;6.85;5.80;;;;;;;8.37;76.12;100866.66;5031804;28;20043;-77
2022/09/30 02:52:37;;;;;;;9.45;6.85;;;;;;;8.37;76.74;100864.09;5031132;28;20033;-76
2022/09/30 02:55:20;;;;;;;7.95;7.15;;;;;;;8.36;76.43;100864.94;5016732;28;20033;-77
2022/09/30 02:58:09;;;;;;;8.05;7.10;;;;;;;8.39;76.56;100862.50;5036939;28;20036;-77
2022/09/30 03:00:34;;;;;;;8.18;7.13;;;;;;;8.32;76.78;100855.38;5039016;28;20056;-77
2022/09/30 03:03:07;;;;;;;9.02;7.22;;;;;;;8.36;76.44;100852.13;5020505;28;20100;-77
2022/09/30 03:05:33;;;;;;;10.50;7.80;;;;;;;8.36;76.24;100864.94;5035271;28;20037;-77
2022/09/30 03:07:59;;;;;;;8.60;7.70;;;;;;;8.29;76.58;100860.38;5015579;28;20083;-77
2022/09/30 03:10:24;;;;;;;9.18;7.18;;;;;;;8.26;76.52;100856.03;5014698;28;20045;-77
2022/09/30 03:13:19;;;;;;;8.27;7.43;;;;;;;8.39;76.31;100853.94;5006725;28;20041;-77
2022/09/30 03:16:01;;;;;;;9.48;7.30;;;;;;;8.32;76.04;100863.06;5012432;28;20481;-77
2022/09/30 03:18:45;;;;;;;8.43;7.20;;;;;;;8.32;76.08;100870.75;5043251;28;20033;-77
2022/09/30 03:21:29;;;;;;;8.88;7.25;;;;;;;8.26;76.24;100866.25;5038607;28;20107;-77
2022/09/30 03:24:22;;;;;;;8.10;7.00;;;;;;;8.30;76.20;100869.78;5039731;28;20042;-77
2022/09/30 03:27:31;;;;;;;9.63;6.93;;;;;;;8.26;76.31;100875.63;5035056;28;20052;-76
2022/09/30 03:30:12;;;;;;;9.55;7.65;;;;;;;8.25;76.14;100877.34;5036377;28;20037;-76
2022/09/30 03:32:50;;;;;;;10.02;8.02;;;;;;;8.21;76.43;100870.34;5037000;28;20029;-76
2022/09/30 03:35:38;;;;;;;9.13;7.93;;;;;;;8.23;76.50;100871.25;5021467;28;20032;-76
2022/09/30 03:38:22;;;;;;;10.48;9.07;;;;;;;8.21;76.84;100869.47;5040152;28;20029;-76
2022/09/30 03:41:01;;;;;;;11.70;9.10;;;;;;;8.16;77.00;100870.97;5052104;28;20032;-76
2022/09/30 03:43:36;;;;;;;10.77;8.73;;;;;;;8.16;76.83;100869.28;5031598;28;20100;-76
2022/09/30 03:46:09;;;;;;;10.38;8.73;;;;;;;8.11;76.29;100873.34;5043512;28;20063;-77
2022/09/30 03:48:37;;;;;;;14.30;8.60;;;;;;;7.99;76.94;100873.75;5027844;28;20043;-76
2022/09/30 03:51:04;;;;;;;14.48;9.68;;;;;;;7.95;76.99;100871.91;5029805;28;20158;-77
2022/09/30 03:53:30;;;;;;;11.32;9.90;;;;;;;7.99;77.32;100880.56;5044180;28;20033;-76
2022/09/30 03:55:55;;;;;;;11.65;9.10;;;;;;;7.95;76.93;100869.34;5026788;28;20044;-76
2022/09/30 03:58:24;;;;;;;10.32;9.20;;;;;;;7.93;77.25;100883.75;5041822;28;20028;-76
2022/09/30 04:00:51;;;;;;;10.73;9.07;;;;;;;7.95;77.20;100888.97;5022672;28;20439;-77
2022/09/30 04:03:18;;;;;;;12.00;9.07;;;;;;;7.93;76.96;100896.56;5037850;28;20053;-77
2022/09/30 04:05:44;;;;;;;13.05;9.40;;;;;;;7.90;77.26;100900.72;5027211;28;20055;-77
2022/09/30 04:08:10;;;;;;;12.88;9.60;;;;;;;7.87;77.44;100909.13;5022299;28;20048;-77
2022/09/30 04:10:38;;;;;;;12.55;9.23;;;;;;;7.85;77.64;100912.44;5026508;28;20020;-77
2022/09/30 04:13:03;;;;;;;10.38;9.27;;;;;;;7.84;78.35;100916.69;5036398;28;20028;-76
2022/09/30 04:15:29;;;;;;;11.60;9.20;;;;;;;7.87;78.06;100921.06;5033772;28;20025;-76
2022/09/30 04:17:54;;;;;;;12.70;9.43;;;;;;;7.89;78.08;100933.13;5030792;28;20529;-77
2022/09/30 04:20:19;;;;;;;13.63;9.98;;;;;;;7.92;78.27;100940.91;5023041;28;20058;-76
2022/09/30 04:22:45;;;;;;;10.63;9.43;;;;;;;7.98;78.03;100947.97;5018264;28;20032;-76
2022/09/30 04:25:11;;;;;;;11.25;10.05;;;;;;;7.95;78.16;100942.75;5025302;28;20487;-77
2022/09/30 04:27:37;;;;;;;12.02;9.50;;;;;;;7.89;78.19;100942.50;5026634;28;20029;-78
2022/09/30 04:30:02;;;;;;;10.90;9.60;;;;;;;7.79;78.01;100944.66;5029518;28;20041;-77
2022/09/30 04:32:29;;;;;;;10.35;9.30;;;;;;;7.83;77.96;100945.69;5042213;28;20078;-77
2022/09/30 04:34:54;;;;;;;12.32;9.68;;;;;;;7.86;77.95;100934.69;5023723;28;20056;-77
2022/09/30 04:37:20;;;;;;;12.80;10.25;;;;;;;7.84;78.17;100941.44;5017364;28;20080;-77
2022/09/30 04:39:45;;;;;;;11.85;10.63;;;;;;;7.79;78.06;100928.44;5043177;28;20029;-77
2022/09/30 04:42:10;;;;;;;13.75;10.65;;;;;;;7.83;77.78;100942.25;5031538;28;20060;-78
2022/09/30 04:44:36;;;;;;;11.30;10.10;;;;;;;7.82;77.65;100943.91;5043923;28;20060;-77
2022/09/30 04:47:01;;;;;;;11.48;9.98;;;;;;;7.73;77.30;100948.66;5035787;28;20470;-78
2022/09/30 04:49:27;;;;;;;12.52;9.93;;;;;;;7.73;77.80;100944.41;5030276;28;20058;-77
2022/09/30 04:51:52;;;;;;;11.43;10.10;;;;;;;7.72;77.75;100952.03;5020800;28;20026;-78
2022/09/30 04:54:20;;;;;;;14.88;10.52;;;;;;;7.72;77.97;100952.03;5030896;28;20396;-78
2022/09/30 04:56:46;;;;;;;12.52;10.30;;;;;;;7.74;77.83;100958.09;5044396;28;20044;-77
2022/09/30 04:59:11;;;;;;;11.45;9.70;;;;;;;7.76;77.74;100954.78;5043609;28;20037;-78
2022/09/30 05:01:38;;;;;;;11.32;9.93;;;;;;;7.78;77.26;100958.28;5009946;28;20097;-78
2022/09/30 05:04:03;;;;;;;11.98;10.02;;;;;;;7.78;77.27;100962.53;5049815;28;20041;-77
2022/09/30 05:06:29;;;;;;;13.27;10.00;;;;;;;7.74;77.30;100966.63;5024245;28;20083;-77
2022/09/30 05:08:54;;;;;;;11.07;9.80;;;;;;;7.75;77.25;100972.63;5032103;28;20034;-76
2022/09/30 05:11:21;;;;;;;11.77;9.60;;;;;;;7.68;77.24;100978.31;5018418;28;20032;-77
2022/09/30 05:13:47;;;;;;;11.52;9.32;;;;;;;7.68;76.61;100970.63;5031389;28;20670;-78
2022/09/30 05:16:13;;;;;;;10.00;8.98;;;;;;;7.64;76.63;100968.75;5039555;28;20043;-77
2022/09/30 05:18:41;;;;;;;10.15;9.15;;;;;;;7.65;76.52;100962.84;5014321;28;20051;-79
2022/09/30 05:21:07;;;;;;;11.23;9.00;;;;;;;7.67;76.34;100971.44;5023215;28;20079;-77
2022/09/30 05:23:33;;;;;;;10.25;9.00;;;;;;;7.64;76.49;100968.75;5032004;28;20032;-77
2022/09/30 05:26:00;;;;;;;12.73;9.20;;;;;;;7.67;76.89;100972.31;5037017;28;20041;-77
2022/09/30 05:28:25;;;;;;;12.43;9.80;;;;;;;7.66;76.65;100975.69;5048378;28;20107;-76
2022/09/30 05:31:03;;;;;;;10.68;9.57;;;;;;;7.64;77.07;100981.53;5030928;28;20045;-76
2022/09/30 05:33:29;;;;;;;13.80;9.63;;;;;;;7.55;76.88;100979.50;5047498;28;20369;-77
2022/09/30 05:35:59;;;;;;;12.90;9.73;;;;;;;7.60;77.23;100983.13;5047773;28;20036;-76
2022/09/30 05:38:27;;;;;;;13.85;9.90;;;;;;;7.57;76.90;100980.41;5041233;28;20173;-76
2022/09/30 05:40:53;;;;;;;15.65;10.10;;;;;;;7.56;77.03;100994.03;5023631;28;20119;-76
2022/09/30 05:43:18;;;;;;;13.55;10.13;;;;;;;7.56;76.96;100998.28;5015483;28;20499;-76
2022/09/30 05:45:54;;;;;;;12.15;9.95;;;;;;;7.51;77.08;101001.50;5044627;28;20055;-77
2022/09/30 05:48:21;;;;;;;14.60;10.65;;;;;;;7.43;77.25;100997.75;5028637;28;20032;-77
2022/09/30 05:50:49;;;;;;;13.13;11.00;;;;;;;7.45;77.73;101018.28;5049765;28;20028;-76
2022/09/30 05:53:15;;;;;;;13.43;11.50;;;;;;;7.45;77.87;101006.34;5033075;28;20030;-77
2022/09/30 05:55:45;;;;;;;14.40;11.10;;;;;;;7.48;77.69;101019.31;5034221;28;20037;-77
2022/09/30 05:58:11;;;;;;;15.45;11.25;;;;;;;7.41;78.20;101004.50;5049822;28;20032;-77
2022/09/30 06:00:40;;;;;;;16.23;12.38;;;;;;;7.46;78.35;101013.25;5013852;28;20051;-77
2022/09/30 06:03:13;;;;;;;14.18;11.40;;;;;;;7.53;77.95;101017.81;5046631;28;20106;-77
2022/09/30 06:05:39;;;;;;;16.45;11.98;;;;;;;7.45;78.46;101026.81;5028232;28;20104;-77
2022/09/30 06:08:07;;;;;;;14.02;12.38;;;;;;;7.32;78.97;101013.44;5040043;28;20548;-76
2022/09/30 06:10:34;;;;;;;16.35;12.85;;;;;;;7.48;79.21;101034.66;5008761;28;20037;-76
2022/09/30 06:13:02;;;;;;;18.45;13.85;;;;;;;7.48;79.26;101034.66;5037911;28;20044;-76
2022/09/30 06:15:30;;;;;;;16.13;13.45;;;;;;;7.45;79.16;101028.50;5009511;28;20025;-77
2022/09/30 06:17:57;;;;;;;16.40;13.23;;;;;;;7.37;79.40;101007.72;5038280;28;20025;-76
2022/09/30 06:20:22;;;;;;;16.38;12.68;;;;;;;7.42;79.44;101021.59;5048382;28;20031;-77
2022/09/30 06:22:50;;;;;;;17.50;13.00;;;;;;;7.47;79.92;101038.03;5047931;28;20388;-76
2022/09/30 06:25:16;;;;;;;16.77;13.48;;;;;;;7.46;80.46;101035.38;5048850;28;20051;-76
2022/09/30 06:27:47;;;;;;;19.27;13.48;;;;;;;7.59;81.24;101053.03;5044760;28;20483;-76
2022/09/30 06:30:45;;;;;;;17.83;13.20;;;;;;;7.65;80.80;101048.19;5038196;28;20778;-77
2022/09/30 06:33:12;;;;;;;14.40;12.90;;;;;;;7.61;81.26;101053.09;5005090;28;20045;-77
2022/09/30 06:35:40;;;;;;;19.42;13.95;;;;;;;7.57;81.82;101052.06;5046650;28;20417;-77
2022/09/30 06:38:09;;;;;;;15.65;13.95;;;;;;;7.64;81.98;101058.31;5045847;28;20021;-77
2022/09/30 06:40:35;;;;;;;16.05;14.02;;;;;;;7.52;82.03;101013.50;5050862;28;20399;-77
2022/09/30 06:43:01;;;;;;;21.60;14.40;;;;;;;7.64;82.44;101028.47;5043481;28;20526;-76
2022/09/30 06:45:28;;;;;;;26.85;15.43;;;;;;;7.66;82.82;101020.91;5048094;28;20957;-76
2022/09/30 06:47:58;;;;;;;19.38;14.77;;;;;;;7.77;82.83;101035.03;5050472;28;20024;-76
2022/09/30 06:50:24;;;;;;;18.15;14.95;;;;;;;7.72;83.38;101013.47;5027564;28;20036;-76
2022/09/30 06:52:50;;;;;;;20.30;14.90;;;;;;;7.87;83.12;101042.25;5025190;28;20025;-76
2022/09/30 06:55:19;;;;;;;19.02;15.73;;;;;;;7.89;83.61;101043.22;5047346;28;20024;-76
2022/09/30 06:57:46;;;;;;;19.08;15.32;;;;;;;7.91;83.68;101033.91;5026453;28;20129;-75
2022/09/30 07:00:16;;;;;;;23.90;15.60;;;;;;;7.95;84.02;101033.22;5040002;28;20046;-75
2022/09/30 07:02:41;;;;;;;;;;;;;;;8.13;82.33;101042.44;5039230;28;20520;-79
2022/09/30 07:05:07;;;;;;;22.17;15.68;;;;;;;8.04;84.48;101050.66;5024336;28;19921;-77
2022/09/30 07:07:34;;;;;;;19.20;16.17;;;;;;;7.99;84.78;101050.44;5042655;28;20026;-78
2022/09/30 07:10:00;;;;;;;20.98;16.38;;;;;;;8.01;85.38;101056.53;5027068;28;20033;-78
2022/09/30 07:12:25;;;;;;;21.80;16.75;;;;;;;8.01;85.08;101041.16;5047821;28;20048;-77
2022/09/30 07:14:51;;;;;;;20.15;17.13;;;;;;;8.07;85.36;101051.66;5045888;28;20052;-77
2022/09/30 07:17:17;;;;;;;20.33;16.98;;;;;;;8.10;85.58;101037.22;5049136;28;20025;-78
2022/09/30 07:19:42;;;;;;;20.10;17.08;;;;;;;8.14;85.77;101041.66;5016091;28;20048;-77
2022/09/30 07:24:52;;;;;;;21.95;17.20;;;;;;;8.25;86.50;101048.06;5048994;28;20530;-78
2022/09/30 07:27:17;;;;;;;21.38;17.98;;;;;;;8.31;86.87;101050.88;5047326;28;20025;-76
2022/09/30 07:29:44;;;;;;;22.92;18.20;;;;;;;8.34;87.03;101039.06;5045006;28;20048;-76
2022/09/30 07:32:10;;;;;;;23.20;18.10;;;;;;;8.39;87.48;101054.66;5038326;28;20029;-75
2022/09/30 07:34:36;;;;;;;20.80;18.10;;;;;;;8.42;87.67;101049.66;5047716;28;20025;-76
2022/09/30 07:37:02;;;;;;;22.67;19.20;;;;;;;8.50;87.90;101052.53;5044616;28;20105;-76
2022/09/30 07:39:28;;;;;;;23.58;18.95;;;;;;;8.53;88.63;101050.09;5044003;28;20033;-76
2022/09/30 07:41:57;;;;;;;21.45;18.55;;;;;;;8.57;89.01;101057.97;5029687;28;20376;-75
2022/09/30 07:44:25;;;;;;;22.25;18.63;;;;;;;8.68;89.31;101057.50;5032334;28;20486;-75
2022/09/30 07:46:50;;;;;;;24.08;19.33;;;;;;;8.71;89.50;101058.50;5047181;28;20017;-75
2022/09/30 07:49:24;;;;;;;21.88;19.02;;;;;;;8.82;89.08;101057.22;5048040;28;20086;-76
2022/09/30 07:51:53;;;;;;;26.48;19.25;;;;;;;8.95;90.33;101045.72;5033680;28;20082;-75
2022/09/30 07:54:21;;;;;;;21.83;19.08;;;;;;;9.19;89.95;101050.88;5050019;28;20067;-76
2022/09/30 07:56:48;;;;;;;24.63;19.48;;;;;;;9.38;89.84;101047.28;5051010;28;20035;-76
2022/09/30 07:59:14;;;;;;;23.10;19.75;;;;;;;9.57;89.55;101056.50;5052048;28;20398;-76
2022/09/30 08:01:40;;;;;;;22.48;18.88;;;;;;;9.77;89.06;101049.50;5049667;28;20033;-76
2022/09/30 08:04:07;;;;;;;21.77;17.00;;;;;;;10.04;88.32;101047.00;5046582;28;20047;-76
2022/09/30 08:06:38;;;;;;;18.83;16.15;;;;;;;10.31;88.20;101041.91;5050476;28;20102;-76
2022/09/30 08:09:04;;;;;;;18.33;15.35;;;;;;;10.55;86.96;101036.66;5049907;28;20079;-76
2022/09/30 08:11:32;;;;;;;18.60;14.50;;;;;;;10.81;86.37;101042.59;5049475;28;20090;-74
2022/09/30 08:13:58;;;;;;;16.55;13.73;;;;;;;10.95;85.77;101042.16;5047385;28;20025;-74
2022/09/30 08:16:24;;;;;;;15.05;13.25;;;;;;;11.22;84.77;101036.97;5028641;28;20086;-75
2022/09/30 08:18:54;;;;;;;14.45;12.90;;;;;;;11.44;84.50;101047.84;5046556;28;20044;-75
2022/09/30 08:21:20;;;;;;;14.30;12.07;;;;;;;11.60;83.27;101047.44;5045380;28;20033;-75
2022/09/30 08:23:45;;;;;;;16.58;12.10;;;;;;;11.82;83.35;101044.59;5043784;28;20071;-75
2022/09/30 08:26:12;;;;;;;13.98;11.60;;;;;;;11.93;82.51;101044.00;5030601;28;20068;-74
2022/09/30 08:28:38;;;;;;;13.10;10.27;;;;;;;12.11;81.27;101039.31;5047630;28;20025;-74
2022/09/30 08:31:09;;;;;;;14.10;10.70;;;;;;;12.25;80.65;101027.63;5032551;28;20484;-75
2022/09/30 08:33:35;;;;;;;12.52;9.70;;;;;;;12.54;79.81;101045.47;5012061;28;20886;-75
2022/09/30 08:36:09;;;;;;;13.15;9.40;;;;;;;12.60;79.19;101038.75;5047629;28;20503;-74
2022/09/30 08:38:35;;;;;;;10.43;8.85;;;;;;;12.69;78.93;101038.09;5047532;28;20097;-74
2022/09/30 08:41:09;;;;;;;10.80;9.35;;;;;;;12.81;79.42;101042.66;5045081;28;20411;-74
2022/09/30 08:43:49;;;;;;;13.50;9.48;;;;;;;12.91;78.19;101044.59;5050756;28;20021;-73
2022/09/30 08:46:45;;;;;;;13.10;10.43;;;;;;;12.97;79.38;101043.84;5039681;28;20028;-74
2022/09/30 08:49:48;;;;;;;15.57;10.65;;;;;;;13.03;78.91;101051.72;5046382;28;20109;-74
2022/09/30 08:52:19;;;;;;;13.70;10.80;;;;;;;13.02;77.52;101062.91;5039561;28;20132;-74
2022/09/30 08:54:49;;;;;;;13.20;11.40;;;;;;;13.04;77.79;101071.53;5024305;28;20299;-74
2022/09/30 08:57:15;;;;;;;15.38;11.70;;;;;;;13.07;77.98;101061.28;5040117;28;20056;-73
2022/09/30 08:59:48;;;;;;;14.77;12.57;;;;;;;13.15;78.17;101059.72;5041039;28;20388;-74
2022/09/30 09:02:29;;;;;;;14.30;11.88;;;;;;;13.19;78.38;101058.94;5045822;28;20056;-74
2022/09/30 09:05:04;;;;;;;17.08;12.70;;;;;;;13.25;78.47;101051.38;5024377;28;20504;-73
2022/09/30 09:07:36;;;;;;;15.43;12.88;;;;;;;13.29;78.60;101047.16;5031629;28;20076;-74
2022/09/30 09:10:27;;;;;;;15.68;12.18;;;;;;;13.32;78.57;101045.47;5049427;28;20043;-73
2022/09/30 09:13:04;;;;;;;14.30;12.13;;;;;;;13.38;78.00;101055.94;5048131;28;20036;-74
2022/09/30 09:16:01;;;;;;;13.68;11.73;;;;;;;13.43;78.45;101056.03;5043565;28;20024;-73
2022/09/30 09:18:33;;;;;;;15.02;11.55;;;;;;;13.51;78.30;101051.00;5027702;28;20087;-73
2022/09/30 09:21:22;;;;;;;14.70;11.70;;;;;;;13.53;78.65;101050.22;5046438;28;20475;-73
2022/09/30 09:23:54;;;;;;;13.85;11.93;;;;;;;13.58;78.06;101045.09;5031493;28;20041;-73
2022/09/30 09:26:23;;;;;;;13.43;11.80;;;;;;;13.58;78.23;101055.44;5046646;28;20021;-73
2022/09/30 09:29:07;;;;;;;13.13;10.73;;;;;;;13.72;78.54;101060.88;5047206;28;20029;-73
2022/09/30 09:31:32;;;;;;;12.18;10.43;;;;;;;13.74;78.12;101072.97;5028107;28;20035;-73
2022/09/30 09:34:10;;;;;;;13.93;11.27;;;;;;;13.80;78.18;101073.09;5030616;28;20029;-73
2022/09/30 09:36:50;;;;;;;12.60;9.98;;;;;;;13.87;76.80;101067.19;5046618;28;20399;-73
2022/09/30 09:39:38;;;;;;;11.90;9.68;;;;;;;13.94;77.33;101068.16;5027282;28;20041;-73
2022/09/30 09:42:21;;;;;;;12.77;10.57;;;;;;;13.99;77.46;101055.31;5037693;28;20029;-73
2022/09/30 09:45:01;;;;;;;11.95;9.90;;;;;;;14.14;77.35;101053.00;5042744;28;20134;-73
2022/09/30 09:47:26;;;;;;;11.10;9.60;;;;;;;14.16;76.20;101064.22;5047556;28;20039;-73
2022/09/30 09:50:03;;;;;;;11.93;9.48;;;;;;;14.26;76.47;101058.38;5027716;28;20033;-73
2022/09/30 09:52:43;;;;;;;13.35;9.25;;;;;;;14.27;76.53;101052.34;5043417;28;20654;-73
2022/09/30 09:55:10;;;;;;;13.13;9.23;;;;;;;14.39;76.49;101044.78;5042537;28;20027;-73
2022/09/30 09:57:36;;;;;;;11.60;9.50;;;;;;;14.46;77.01;101040.56;5045106;28;20110;-73
2022/09/30 10:03:10;;;;;;;11.30;8.77;;;;;;;14.62;76.74;101044.25;5051258;28;20412;-73
2022/09/30 10:05:39;;;;;;;14.63;9.25;;;;;;;14.71;75.69;101047.00;5045015;28;20033;-73
2022/09/30 10:08:22;;;;;;;10.82;8.48;;;;;;;14.74;75.72;101045.34;5046292;28;20501;-73
2022/09/30 10:10:54;;;;;;;10.35;8.57;;;;;;;14.74;75.50;101034.09;5051803;28;20106;-73
2022/09/30 10:13:25;;;;;;;10.40;8.82;;;;;;;14.89;75.17;101043.78;5052672;28;20031;-73
2022/09/30 10:15:54;;;;;;;10.57;8.18;;;;;;;14.95;74.56;101047.34;5045632;28;20019;-73
2022/09/30 10:18:23;;;;;;;9.90;8.43;;;;;;;15.08;75.52;101052.66;5050548;28;20150;-73
2022/09/30 10:20:52;;;;;;;9.52;8.20;;;;;;;15.03;74.28;101050.00;5046644;28;20037;-73
2022/09/30 10:23:20;;;;;;;9.35;7.72;;;;;;;15.19;73.79;101059.72;5042757;28;20106;-73
2022/09/30 10:26:15;;;;;;;9.77;7.82;;;;;;;15.24;73.75;101060.66;5042380;28;20029;-73
2022/09/30 10:28:51;;;;;;;8.88;7.10;;;;;;;15.25;74.13;101053.75;5019863;28;20040;-73
2022/09/30 10:31:25;;;;;;;8.15;6.82;;;;;;;15.29;73.00;101058.13;5041795;28;20399;-73
2022/09/30 10:34:05;;;;;;;7.78;5.80;;;;;;;15.31;72.21;101051.22;5043453;28;20085;-72
2022/09/30 10:36:33;;;;;;;8.25;6.07;;;;;;;15.38;71.88;101050.44;5042402;28;20479;-72
2022/09/30 10:39:01;;;;;;;6.87;5.53;;;;;;;15.45;71.66;101060.03;5043609;28;20828;-72
2022/09/30 10:41:30;;;;;;;6.18;5.25;;;;;;;15.48;72.08;101056.63;5038907;28;20029;-72
2022/09/30 10:44:03;;;;;;;6.35;5.63;;;;;;;15.57;71.43;101049.78;5023450;28;20078;-72
2022/09/30 10:46:37;;;;;;;7.47;5.60;;;;;;;15.74;71.90;101049.13;5032189;28;20017;-73
2022/09/30 10:49:09;;;;;;;7.50;5.70;;;;;;;15.95;71.54;101049.31;5039191;28;20108;-73
2022/09/30 10:51:35;;;;;;;5.20;4.65;;;;;;;16.23;70.61;101052.16;5046950;28;20025;-72
2022/09/30 10:54:03;;;;;;;5.50;4.28;;;;;;;16.43;67.99;101060.94;5034978;28;20563;-73
2022/09/30 10:56:44;;;;;;;5.65;4.07;;;;;;;16.66;67.60;101049.88;5027869;28;20051;-72
2022/09/30 10:59:37;;;;;;;4.47;3.92;;;;;;;16.99;66.70;101057.88;5039210;28;20028;-73
2022/09/30 11:02:26;;;;;;;6.85;4.30;;;;;;;17.31;65.97;101051.94;5047691;28;20052;-73
2022/09/30 11:05:23;;;;;;;6.78;4.20;;;;;;;17.51;65.09;101052.88;5038686;28;20041;-73
2022/09/30 11:07:59;;;;;;;5.97;4.38;;;;;;;17.35;64.02;101051.97;5043284;28;20029;-73
2022/09/30 11:10:41;;;;;;;5.68;3.92;;;;;;;17.38;64.49;101041.56;5042689;28;20041;-73
2022/09/30 11:13:20;;;;;;;5.43;3.85;;;;;;;17.70;62.57;101039.03;5047126;28;20039;-72
2022/09/30 11:16:21;;;;;;;4.72;3.80;;;;;;;18.06;64.27;101039.97;5042056;28;20472;-73
2022/09/30 11:19:10;;;;;;;4.45;2.25;;;;;;;18.35;60.62;101041.69;5030896;28;20036;-72
2022/09/30 11:22:07;;;;;;;2.28;2.00;;;;;;;18.65;58.38;101041.66;5045129;28;20044;-72
2022/09/30 11:24:46;;;;;;;2.75;1.90;;;;;;;18.91;58.54;101040.75;5047053;28;20025;-72
2022/09/30 11:27:21;;;;;;;;;;;;;;;19.14;58.76;101038.91;5044607;28;20075;-73
2022/09/30 11:30:30;;;;;;;2.67;2.40;;;;;;;19.32;57.15;101042.31;5046611;28;19917;-72
2022/09/30 11:33:01;;;;;;;3.95;2.47;;;;;;;19.29;54.43;101032.75;5047447;28;20044;-72
2022/09/30 11:36:01;;;;;;;2.83;2.20;;;;;;;19.34;57.02;101028.38;5052303;28;20028;-72
2022/09/30 11:38:54;;;;;;;4.30;2.47;;;;;;;19.49;55.74;101024.84;5048124;28;20037;-72
2022/09/30 11:41:45;;;;;;;5.20;2.10;;;;;;;19.68;55.07;101020.41;5051318;28;20106;-72
2022/09/30 11:44:29;;;;;;;3.20;2.10;;;;;;;19.80;55.42;101015.94;5043411;28;20083;-72
2022/09/30 11:47:32;;;;;;;4.88;2.75;;;;;;;19.94;55.02;101013.22;5047501;28;20036;-72
2022/09/30 11:50:27;;;;;;;4.30;2.20;;;;;;;20.12;55.05;101006.13;5046138;28;20064;-72
2022/09/30 11:53:31;;;;;;;3.53;2.70;;;;;;;20.08;53.99;101002.66;5015220;28;20136;-72
2022/09/30 11:56:14;;;;;;;3.17;2.30;;;;;;;19.63;55.28;100999.56;5045487;28;20033;-72